sensor_id;sensor_type;location;lat;lon;timestamp;pressure;altitude;pressure_sealevel;temperature;humidity
10824;BME280;39116;59.332;18.034;2023-04-03T00:01:17;102918.44;;;-2.57;100.00
10824;BME280;39116;59.332;18.034;2023-04-03T00:03:39;103030.69;;;-1.85;100.00
10824;BME280;39116;59.332;18.034;2023-04-03T00:06:04;103033.56;;;-1.91;100.00
10824;BME280;39116;59.332;18.034;2023-04-03T00:08:27;103032.66;;;-1.83;100.00
10824;BME280;39116;59.332;18.034;2023-04-03T00:10:51;103031.41;;;-1.69;100.00
10824;BME280;39116;59.332;18.034;2023-04-03T00:13:14;103039.53;;;-1.73;100.00
10824;BME280;39116;59.332;18.034;2023-04-03T00:15:36;103029.19;;;-1.83;100.00
10824;BME280;39116;59.332;18.034;2023-04-03T00:17:58;103035.19;;;-1.74;100.00
10824;BME280;39116;59.332;18.034;2023-04-03T00:20:20;103035.97;;;-1.93;100.00
10824;BME280;39116;59.332;18.034;2023-04-03T00:22:43;103033.78;;;-1.62;100.00
10824;BME280;39116;59.332;18.034;2023-04-03T00:25:07;103040.72;;;-1.69;100.00
10824;BME280;39116;59.332;18.034;2023-04-03T00:27:29;103028.44;;;-1.82;100.00
10824;BME280;39116;59.332;18.034;2023-04-03T00:29:51;103044.97;;;-1.79;100.00
10824;BME280;39116;59.332;18.034;2023-04-03T00:32:13;103024.56;;;-1.96;100.00
10824;BME280;39116;59.332;18.034;2023-04-03T00:34:35;103039.09;;;-1.78;100.00
10824;BME280;39116;59.332;18.034;2023-04-03T00:36:57;103042.13;;;-1.90;100.00
10824;BME280;39116;59.332;18.034;2023-04-03T00:39:20;103041.88;;;-1.57;100.00
10824;BME280;39116;59.332;18.034;2023-04-03T00:41:42;103045.69;;;-1.71;100.00
10824;BME280;39116;59.332;18.034;2023-04-03T00:44:19;103040.03;;;-1.49;100.00
10824;BME280;39116;59.332;18.034;2023-04-03T00:46:41;103038.97;;;-1.79;100.00
10824;BME280;39116;59.332;18.034;2023-04-03T00:49:03;103037.97;;;-1.99;100.00
10824;BME280;39116;59.332;18.034;2023-04-03T00:51:26;103037.19;;;-1.98;100.00
10824;BME280;39116;59.332;18.034;2023-04-03T00:53:50;103043.22;;;-1.97;100.00
10824;BME280;39116;59.332;18.034;2023-04-03T00:56:18;103043.28;;;-1.78;100.00
10824;BME280;39116;59.332;18.034;2023-04-03T00:58:44;103035.47;;;-1.71;100.00
10824;BME280;39116;59.332;18.034;2023-04-03T01:01:11;103033.53;;;-1.74;100.00
10824;BME280;39116;59.332;18.034;2023-04-03T01:03:34;103031.19;;;-1.89;100.00
10824;BME280;39116;59.332;18.034;2023-04-03T01:05:56;103034.63;;;-1.89;100.00
10824;BME280;39116;59.332;18.034;2023-04-03T01:08:19;103035.06;;;-1.84;100.00
10824;BME280;39116;59.332;18.034;2023-04-03T01:10:41;103045.97;;;-1.68;100.00
10824;BME280;39116;59.332;18.034;2023-04-03T01:13:18;103041.03;;;-1.75;100.00
10824;BME280;39116;59.332;18.034;2023-04-03T01:15:41;103035.06;;;-1.84;100.00
10824;BME280;39116;59.332;18.034;2023-04-03T01:18:02;103033.72;;;-1.81;100.00
10824;BME280;39116;59.332;18.034;2023-04-03T01:23:38;103038.31;;;-1.68;100.00
10824;BME280;39116;59.332;18.034;2023-04-03T01:26:02;103035.97;;;-1.84;100.00
10824;BME280;39116;59.332;18.034;2023-04-03T01:28:28;103042.94;;;-1.64;100.00
10824;BME280;39116;59.332;18.034;2023-04-03T01:30:55;103040.69;;;-1.61;100.00
10824;BME280;39116;59.332;18.034;2023-04-03T01:33:21;103040.41;;;-1.64;100.00
10824;BME280;39116;59.332;18.034;2023-04-03T01:35:43;103042.25;;;-1.80;100.00
10824;BME280;39116;59.332;18.034;2023-04-03T01:38:05;103039.88;;;-1.87;100.00
10824;BME280;39116;59.332;18.034;2023-04-03T01:40:27;103038.78;;;-1.72;100.00
10824;BME280;39116;59.332;18.034;2023-04-03T01:42:49;103041.53;;;-1.79;100.00
10824;BME280;39116;59.332;18.034;2023-04-03T01:45:11;103046.88;;;-1.76;100.00
10824;BME280;39116;59.332;18.034;2023-04-03T01:47:34;103041.34;;;-1.72;100.00
10824;BME280;39116;59.332;18.034;2023-04-03T01:49:57;103046.88;;;-1.76;100.00
10824;BME280;39116;59.332;18.034;2023-04-03T01:52:19;103038.69;;;-1.91;100.00
10824;BME280;39116;59.332;18.034;2023-04-03T01:54:41;103054.56;;;-1.76;100.00
10824;BME280;39116;59.332;18.034;2023-04-03T01:57:03;103051.91;;;-1.86;100.00
10824;BME280;39116;59.332;18.034;2023-04-03T01:59:25;103048.59;;;-2.03;100.00
10824;BME280;39116;59.332;18.034;2023-04-03T02:01:47;103053.09;;;-1.92;100.00
10824;BME280;39116;59.332;18.034;2023-04-03T02:04:09;103053.66;;;-1.77;100.00
10824;BME280;39116;59.332;18.034;2023-04-03T02:06:32;103054.28;;;-1.79;100.00
10824;BME280;39116;59.332;18.034;2023-04-03T02:08:54;103054.88;;;-1.90;100.00
10824;BME280;39116;59.332;18.034;2023-04-03T02:11:16;103059.81;;;-1.83;100.00
10824;BME280;39116;59.332;18.034;2023-04-03T02:13:38;103055.66;;;-1.92;100.00
10824;BME280;39116;59.332;18.034;2023-04-03T02:16:06;103057.44;;;-1.82;100.00
10824;BME280;39116;59.332;18.034;2023-04-03T02:18:28;103055.50;;;-1.84;100.00
10824;BME280;39116;59.332;18.034;2023-04-03T02:20:50;103059.84;;;-1.92;100.00
10824;BME280;39116;59.332;18.034;2023-04-03T02:23:13;103057.28;;;-1.83;100.00
10824;BME280;39116;59.332;18.034;2023-04-03T02:25:35;103053.34;;;-1.80;100.00
10824;BME280;39116;59.332;18.034;2023-04-03T02:27:57;103054.44;;;-1.86;100.00
10824;BME280;39116;59.332;18.034;2023-04-03T02:30:19;103059.38;;;-1.79;100.00
10824;BME280;39116;59.332;18.034;2023-04-03T02:32:41;103058.38;;;-1.90;100.00
10824;BME280;39116;59.332;18.034;2023-04-03T02:35:03;103054.28;;;-1.79;100.00
10824;BME280;39116;59.332;18.034;2023-04-03T02:37:25;103050.44;;;-2.19;100.00
10824;BME280;39116;59.332;18.034;2023-04-03T02:39:48;103064.94;;;-1.83;100.00
10824;BME280;39116;59.332;18.034;2023-04-03T02:42:10;103059.72;;;-1.94;100.00
10824;BME280;39116;59.332;18.034;2023-04-03T02:44:32;103063.72;;;-1.78;100.00
10824;BME280;39116;59.332;18.034;2023-04-03T02:46:54;103068.13;;;-2.03;100.00
10824;BME280;39116;59.332;18.034;2023-04-03T02:49:16;103055.22;;;-2.05;100.00
10824;BME280;39116;59.332;18.034;2023-04-03T02:51:38;103063.63;;;-1.97;100.00
10824;BME280;39116;59.332;18.034;2023-04-03T02:54:00;103069.63;;;-1.97;100.00
10824;BME280;39116;59.332;18.034;2023-04-03T02:56:24;103072.19;;;-1.97;100.00
10824;BME280;39116;59.332;18.034;2023-04-03T02:58:47;103077.78;;;-2.18;100.00
10824;BME280;39116;59.332;18.034;2023-04-03T03:01:09;103096.06;;;-2.05;100.00
10824;BME280;39116;59.332;18.034;2023-04-03T03:03:31;103077.91;;;-2.25;100.00
10824;BME280;39116;59.332;18.034;2023-04-03T03:06:01;103068.19;;;-2.29;100.00
10824;BME280;39116;59.332;18.034;2023-04-03T03:08:23;103075.38;;;-2.25;100.00
10824;BME280;39116;59.332;18.034;2023-04-03T03:10:45;103082.13;;;-2.35;100.00
10824;BME280;39116;59.332;18.034;2023-04-03T03:13:08;103087.34;;;-2.24;100.00
10824;BME280;39116;59.332;18.034;2023-04-03T03:15:30;103086.31;;;-2.53;100.00
10824;BME280;39116;59.332;18.034;2023-04-03T03:17:52;103082.25;;;-2.59;100.00
10824;BME280;39116;59.332;18.034;2023-04-03T03:20:14;103094.41;;;-2.65;100.00
10824;BME280;39116;59.332;18.034;2023-04-03T03:22:36;103087.06;;;-2.54;100.00
10824;BME280;39116;59.332;18.034;2023-04-03T03:24:58;103080.31;;;-2.53;100.00
10824;BME280;39116;59.332;18.034;2023-04-03T03:27:20;103076.72;;;-2.55;100.00
10824;BME280;39116;59.332;18.034;2023-04-03T03:29:43;103080.47;;;-2.52;100.00
10824;BME280;39116;59.332;18.034;2023-04-03T03:32:05;103074.31;;;-2.62;100.00
10824;BME280;39116;59.332;18.034;2023-04-03T03:34:27;103079.56;;;-2.52;100.00
10824;BME280;39116;59.332;18.034;2023-04-03T03:36:49;103088.56;;;-2.47;100.00
10824;BME280;39116;59.332;18.034;2023-04-03T03:39:12;103078.97;;;-2.41;100.00
10824;BME280;39116;59.332;18.034;2023-04-03T03:41:34;103087.81;;;-2.63;100.00
10824;BME280;39116;59.332;18.034;2023-04-03T03:43:56;103082.22;;;-2.77;100.00
10824;BME280;39116;59.332;18.034;2023-04-03T03:46:19;103091.28;;;-2.54;100.00
10824;BME280;39116;59.332;18.034;2023-04-03T03:48:41;103088.72;;;-2.54;100.00
10824;BME280;39116;59.332;18.034;2023-04-03T03:51:03;103093.06;;;-2.53;100.00
10824;BME280;39116;59.332;18.034;2023-04-03T03:53:25;103093.06;;;-2.53;100.00
10824;BME280;39116;59.332;18.034;2023-04-03T03:55:47;103090.97;;;-2.57;100.00
10824;BME280;39116;59.332;18.034;2023-04-03T03:58:09;103098.44;;;-2.59;100.00
10824;BME280;39116;59.332;18.034;2023-04-03T04:00:31;103097.84;;;-2.74;100.00
10824;BME280;39116;59.332;18.034;2023-04-03T04:02:54;103096.81;;;-2.67;100.00
10824;BME280;39116;59.332;18.034;2023-04-03T04:05:16;103100.44;;;-2.56;100.00
10824;BME280;39116;59.332;18.034;2023-04-03T04:07:38;103098.72;;;-2.73;100.00
10824;BME280;39116;59.332;18.034;2023-04-03T04:10:00;103102.97;;;-2.56;100.00
10824;BME280;39116;59.332;18.034;2023-04-03T04:12:22;103102.38;;;-2.54;100.00
10824;BME280;39116;59.332;18.034;2023-04-03T04:14:44;103106.53;;;-2.72;100.00
10824;BME280;39116;59.332;18.034;2023-04-03T04:17:07;103111.50;;;-2.64;100.00
10824;BME280;39116;59.332;18.034;2023-04-03T04:19:30;103112.28;;;-2.65;100.00
10824;BME280;39116;59.332;18.034;2023-04-03T04:21:53;103110.13;;;-2.70;100.00
10824;BME280;39116;59.332;18.034;2023-04-03T04:24:15;103131.31;;;-2.53;100.00
10824;BME280;39116;59.332;18.034;2023-04-03T04:26:37;103108.97;;;-2.56;100.00
10824;BME280;39116;59.332;18.034;2023-04-03T04:28:59;103101.75;;;-2.69;100.00
10824;BME280;39116;59.332;18.034;2023-04-03T04:31:21;103110.13;;;-2.70;100.00
10824;BME280;39116;59.332;18.034;2023-04-03T04:33:43;103109.28;;;-2.53;100.00
10824;BME280;39116;59.332;18.034;2023-04-03T04:36:07;103112.91;;;-2.33;100.00
10824;BME280;39116;59.332;18.034;2023-04-03T04:38:28;103110.19;;;-2.35;100.00
10824;BME280;39116;59.332;18.034;2023-04-03T04:40:50;103115.59;;;-2.49;100.00
10824;BME280;39116;59.332;18.034;2023-04-03T04:43:12;103107.47;;;-2.45;100.00
10824;BME280;39116;59.332;18.034;2023-04-03T04:45:34;103101.34;;;-2.38;100.00
10824;BME280;39116;59.332;18.034;2023-04-03T04:47:56;103107.94;;;-2.23;100.00
10824;BME280;39116;59.332;18.034;2023-04-03T04:50:18;103094.41;;;-2.39;100.00
10824;BME280;39116;59.332;18.034;2023-04-03T04:52:42;103102.97;;;-2.13;100.00
10824;BME280;39116;59.332;18.034;2023-04-03T04:55:05;103090.38;;;-2.11;100.00
10824;BME280;39116;59.332;18.034;2023-04-03T04:57:27;103101.19;;;-2.22;100.00
10824;BME280;39116;59.332;18.034;2023-04-03T04:59:49;103101.34;;;-2.29;100.00
10824;BME280;39116;59.332;18.034;2023-04-03T05:02:11;103102.38;;;-2.36;100.00
10824;BME280;39116;59.332;18.034;2023-04-03T05:04:33;103100.88;;;-2.17;100.00
10824;BME280;39116;59.332;18.034;2023-04-03T05:06:55;103095.78;;;-2.43;100.00
10824;BME280;39116;59.332;18.034;2023-04-03T05:09:18;103096.38;;;-2.19;100.00
10824;BME280;39116;59.332;18.034;2023-04-03T05:11:40;103103.88;;;-2.21;100.00
10824;BME280;39116;59.332;18.034;2023-04-03T05:14:03;103105.38;;;-2.14;100.00
10824;BME280;39116;59.332;18.034;2023-04-03T05:16:26;103097.72;;;-2.32;100.00
10824;BME280;39116;59.332;18.034;2023-04-03T05:18:48;103101.94;;;-2.06;100.00
10824;BME280;39116;59.332;18.034;2023-04-03T05:21:10;103102.97;;;-2.21;100.00
10824;BME280;39116;59.332;18.034;2023-04-03T05:23:32;103093.97;;;-2.09;100.00
10824;BME280;39116;59.332;18.034;2023-04-03T05:25:55;103107.16;;;-1.96;100.00
10824;BME280;39116;59.332;18.034;2023-04-03T05:28:17;103101.00;;;-1.89;100.00
10824;BME280;39116;59.332;18.034;2023-04-03T05:30:39;103094.34;;;-1.69;100.00
10824;BME280;39116;59.332;18.034;2023-04-03T05:33:01;103096.91;;;-1.78;100.00
10824;BME280;39116;59.332;18.034;2023-04-03T05:35:24;103099.59;;;-1.68;100.00
10824;BME280;39116;59.332;18.034;2023-04-03T05:37:45;103095.69;;;-1.64;100.00
10824;BME280;39116;59.332;18.034;2023-04-03T05:40:08;103097.75;;;-1.51;100.00
10824;BME280;39116;59.332;18.034;2023-04-03T05:42:32;103102.28;;;-1.58;100.00
10824;BME280;39116;59.332;18.034;2023-04-03T05:44:54;103095.13;;;-1.79;100.00
10824;BME280;39116;59.332;18.034;2023-04-03T05:47:16;103095.25;;;-1.69;100.00
10824;BME280;39116;59.332;18.034;2023-04-03T05:49:38;103093.69;;;-1.49;100.00
10824;BME280;39116;59.332;18.034;2023-04-03T05:52:01;103094.84;;;-1.37;100.00
10824;BME280;39116;59.332;18.034;2023-04-03T05:54:24;103074.94;;;-1.59;100.00
10824;BME280;39116;59.332;18.034;2023-04-03T05:56:47;103097.09;;;-1.40;100.00
10824;BME280;39116;59.332;18.034;2023-04-03T05:59:10;103100.41;;;-1.32;100.00
10824;BME280;39116;59.332;18.034;2023-04-03T06:01:32;103103.09;;;-1.31;100.00
10824;BME280;39116;59.332;18.034;2023-04-03T06:03:54;103088.63;;;-1.22;100.00
10824;BME280;39116;59.332;18.034;2023-04-03T06:06:16;103093.97;;;-1.10;100.00
10824;BME280;39116;59.332;18.034;2023-04-03T06:08:38;103099.84;;;-1.11;100.00
10824;BME280;39116;59.332;18.034;2023-04-03T06:11:00;103099.03;;;-1.01;100.00
10824;BME280;39116;59.332;18.034;2023-04-03T06:13:23;103098.38;;;-0.90;100.00
10824;BME280;39116;59.332;18.034;2023-04-03T06:15:46;103092.69;;;-0.96;100.00
10824;BME280;39116;59.332;18.034;2023-04-03T06:18:09;103103.22;;;-0.93;100.00
10824;BME280;39116;59.332;18.034;2023-04-03T06:20:30;103102.25;;;-0.85;100.00
10824;BME280;39116;59.332;18.034;2023-04-03T06:22:52;103104.47;;;-0.79;100.00
10824;BME280;39116;59.332;18.034;2023-04-03T06:25:14;103104.81;;;-0.57;100.00
10824;BME280;39116;59.332;18.034;2023-04-03T06:27:38;103102.91;;;-0.68;100.00
10824;BME280;39116;59.332;18.034;2023-04-03T06:30:00;103096.75;;;-0.70;100.00
10824;BME280;39116;59.332;18.034;2023-04-03T06:32:23;103101.88;;;-0.32;100.00
10824;BME280;39116;59.332;18.034;2023-04-03T06:34:45;103112.13;;;-0.32;100.00
10824;BME280;39116;59.332;18.034;2023-04-03T06:37:10;103109.63;;;-0.22;100.00
10824;BME280;39116;59.332;18.034;2023-04-03T06:39:32;103103.56;;;-0.52;100.00
10824;BME280;39116;59.332;18.034;2023-04-03T06:41:55;103105.94;;;-0.45;100.00
10824;BME280;39116;59.332;18.034;2023-04-03T06:44:17;103109.03;;;-0.39;100.00
10824;BME280;39116;59.332;18.034;2023-04-03T06:46:39;103110.47;;;-0.13;100.00
10824;BME280;39116;59.332;18.034;2023-04-03T06:49:03;103074.66;;;-0.51;100.00
10824;BME280;39116;59.332;18.034;2023-04-03T06:51:30;103053.69;;;-0.28;100.00
10824;BME280;39116;59.332;18.034;2023-04-03T06:53:53;103105.75;;;0.11;100.00
10824;BME280;39116;59.332;18.034;2023-04-03T06:56:16;103098.91;;;0.01;100.00
10824;BME280;39116;59.332;18.034;2023-04-03T06:58:37;103106.06;;;0.24;100.00
10824;BME280;39116;59.332;18.034;2023-04-03T07:00:59;103112.25;;;-0.69;100.00
10824;BME280;39116;59.332;18.034;2023-04-03T07:03:21;103109.22;;;-0.46;100.00
10824;BME280;39116;59.332;18.034;2023-04-03T07:05:45;103117.59;;;-0.19;100.00
10824;BME280;39116;59.332;18.034;2023-04-03T07:08:07;103112.19;;;-0.60;100.00
10824;BME280;39116;59.332;18.034;2023-04-03T07:10:29;103112.88;;;-0.52;100.00
10824;BME280;39116;59.332;18.034;2023-04-03T07:12:51;103113.94;;;-0.31;100.00
10824;BME280;39116;59.332;18.034;2023-04-03T07:15:13;103107.59;;;0.03;100.00
10824;BME280;39116;59.332;18.034;2023-04-03T07:17:35;103111.88;;;-0.35;100.00
10824;BME280;39116;59.332;18.034;2023-04-03T07:19:57;103109.03;;;0.29;100.00
10824;BME280;39116;59.332;18.034;2023-04-03T07:22:20;103111.38;;;0.46;100.00
10824;BME280;39116;59.332;18.034;2023-04-03T07:24:42;103078.06;;;0.46;100.00
10824;BME280;39116;59.332;18.034;2023-04-03T07:27:05;103111.19;;;0.64;100.00
10824;BME280;39116;59.332;18.034;2023-04-03T07:29:28;103107.06;;;0.55;100.00
10824;BME280;39116;59.332;18.034;2023-04-03T07:31:50;103103.91;;;0.68;100.00
10824;BME280;39116;59.332;18.034;2023-04-03T07:34:13;103108.72;;;0.55;100.00
10824;BME280;39116;59.332;18.034;2023-04-03T07:36:34;103098.50;;;0.65;100.00
10824;BME280;39116;59.332;18.034;2023-04-03T07:38:58;103099.19;;;0.83;100.00
10824;BME280;39116;59.332;18.034;2023-04-03T07:41:21;103109.38;;;0.52;100.00
10824;BME280;39116;59.332;18.034;2023-04-03T07:43:43;103101.53;;;-0.08;100.00
10824;BME280;39116;59.332;18.034;2023-04-03T07:46:05;103101.97;;;0.26;100.00
10824;BME280;39116;59.332;18.034;2023-04-03T07:48:27;103107.19;;;0.57;100.00
10824;BME280;39116;59.332;18.034;2023-04-03T07:50:49;103102.09;;;-0.02;100.00
10824;BME280;39116;59.332;18.034;2023-04-03T07:53:11;103092.59;;;0.56;100.00
10824;BME280;39116;59.332;18.034;2023-04-03T07:55:36;103098.88;;;0.70;100.00
10824;BME280;39116;59.332;18.034;2023-04-03T07:58:03;103106.00;;;0.93;100.00
10824;BME280;39116;59.332;18.034;2023-04-03T08:00:25;103095.72;;;0.72;100.00
10824;BME280;39116;59.332;18.034;2023-04-03T08:02:47;103099.03;;;0.32;100.00
10824;BME280;39116;59.332;18.034;2023-04-03T08:05:11;103100.22;;;0.85;100.00
10824;BME280;39116;59.332;18.034;2023-04-03T08:07:33;103094.84;;;0.43;100.00
10824;BME280;39116;59.332;18.034;2023-04-03T08:09:55;103102.78;;;0.85;100.00
10824;BME280;39116;59.332;18.034;2023-04-03T08:12:18;103094.69;;;0.70;100.00
10824;BME280;39116;59.332;18.034;2023-04-03T08:14:40;103095.53;;;0.50;100.00
10824;BME280;39116;59.332;18.034;2023-04-03T08:17:02;103091.47;;;0.33;100.00
10824;BME280;39116;59.332;18.034;2023-04-03T08:19:25;103101.50;;;0.90;100.00
10824;BME280;39116;59.332;18.034;2023-04-03T08:21:47;103093.69;;;1.09;100.00
10824;BME280;39116;59.332;18.034;2023-04-03T08:24:09;103089.06;;;1.05;100.00
10824;BME280;39116;59.332;18.034;2023-04-03T08:26:31;103099.63;;;1.19;100.00
10824;BME280;39116;59.332;18.034;2023-04-03T08:28:54;103089.59;;;1.32;100.00
10824;BME280;39116;59.332;18.034;2023-04-03T08:31:18;103089.72;;;1.33;100.00
10824;BME280;39116;59.332;18.034;2023-04-03T08:33:40;103093.97;;;1.33;100.00
10824;BME280;39116;59.332;18.034;2023-04-03T08:36:04;103092.16;;;1.32;100.00
10824;BME280;39116;59.332;18.034;2023-04-03T08:38:27;103065.75;;;1.23;100.00
10824;BME280;39116;59.332;18.034;2023-04-03T08:41:00;103079.56;;;1.45;100.00
10824;BME280;39116;59.332;18.034;2023-04-03T08:43:34;103082.25;;;1.67;100.00
10824;BME280;39116;59.332;18.034;2023-04-03T08:46:01;103062.88;;;1.71;100.00
10824;BME280;39116;59.332;18.034;2023-04-03T08:48:27;103072.66;;;1.97;100.00
10824;BME280;39116;59.332;18.034;2023-04-03T08:50:53;103076.34;;;2.11;100.00
10824;BME280;39116;59.332;18.034;2023-04-03T08:53:19;103067.38;;;2.06;100.00
10824;BME280;39116;59.332;18.034;2023-04-03T08:55:44;103074.75;;;2.23;100.00
10824;BME280;39116;59.332;18.034;2023-04-03T08:58:10;103072.03;;;2.00;100.00
10824;BME280;39116;59.332;18.034;2023-04-03T09:00:38;103079.91;;;2.23;100.00
10824;BME280;39116;59.332;18.034;2023-04-03T09:03:04;103066.44;;;2.16;100.00
10824;BME280;39116;59.332;18.034;2023-04-03T09:05:35;103021.66;;;2.02;100.00
10824;BME280;39116;59.332;18.034;2023-04-03T09:08:07;103077.31;;;2.23;100.00
10824;BME280;39116;59.332;18.034;2023-04-03T09:10:37;103079.03;;;2.13;100.00
10824;BME280;39116;59.332;18.034;2023-04-03T09:13:05;103082.78;;;2.06;100.00
10824;BME280;39116;59.332;18.034;2023-04-03T09:15:29;103092.00;;;2.14;100.00
10824;BME280;39116;59.332;18.034;2023-04-03T09:18:00;103081.59;;;2.13;100.00
10824;BME280;39116;59.332;18.034;2023-04-03T09:20:33;103070.16;;;2.41;100.00
10824;BME280;39116;59.332;18.034;2023-04-03T09:23:00;103074.97;;;2.59;100.00
10824;BME280;39116;59.332;18.034;2023-04-03T09:25:25;103067.69;;;2.53;100.00
10824;BME280;39116;59.332;18.034;2023-04-03T09:27:47;103070.72;;;2.59;100.00
10824;BME280;39116;59.332;18.034;2023-04-03T09:30:14;103064.97;;;2.52;100.00
10824;BME280;39116;59.332;18.034;2023-04-03T09:32:36;103062.44;;;2.63;100.00
10824;BME280;39116;59.332;18.034;2023-04-03T09:35:01;103042.06;;;2.33;100.00
10824;BME280;39116;59.332;18.034;2023-04-03T09:37:38;103056.63;;;2.88;100.00
10824;BME280;39116;59.332;18.034;2023-04-03T09:40:00;103068.53;;;2.76;100.00
10824;BME280;39116;59.332;18.034;2023-04-03T09:42:24;103072.84;;;2.65;100.00
10824;BME280;39116;59.332;18.034;2023-04-03T09:44:54;103051.50;;;2.88;100.00
10824;BME280;39116;59.332;18.034;2023-04-03T09:47:18;103052.47;;;2.78;100.00
10824;BME280;39116;59.332;18.034;2023-04-03T09:49:41;103050.22;;;2.71;100.00
10824;BME280;39116;59.332;18.034;2023-04-03T09:52:18;103047.84;;;2.96;100.00
10824;BME280;39116;59.332;18.034;2023-04-03T09:54:42;103045.13;;;3.29;100.00
10824;BME280;39116;59.332;18.034;2023-04-03T09:57:08;103044.34;;;2.96;92.19
10824;BME280;39116;59.332;18.034;2023-04-03T09:59:32;103034.50;;;2.90;89.50
10824;BME280;39116;59.332;18.034;2023-04-03T10:01:59;103038.56;;;3.10;87.72
10824;BME280;39116;59.332;18.034;2023-04-03T10:04:21;103042.63;;;3.18;88.12
10824;BME280;39116;59.332;18.034;2023-04-03T10:06:44;103033.69;;;3.37;87.24
10824;BME280;39116;59.332;18.034;2023-04-03T10:09:17;103038.03;;;2.58;92.84
10824;BME280;39116;59.332;18.034;2023-04-03T10:11:58;103028.91;;;2.62;97.52
10824;BME280;39116;59.332;18.034;2023-04-03T10:14:20;103009.44;;;2.99;92.56
10824;BME280;39116;59.332;18.034;2023-04-03T10:16:46;103017.13;;;3.33;90.96
10824;BME280;39116;59.332;18.034;2023-04-03T10:19:21;103030.13;;;3.35;87.53
10824;BME280;39116;59.332;18.034;2023-04-03T10:21:50;103016.69;;;3.27;88.31
10824;BME280;39116;59.332;18.034;2023-04-03T10:24:20;103013.13;;;3.49;85.75
10824;BME280;39116;59.332;18.034;2023-04-03T10:26:52;103021.50;;;3.46;86.70
10824;BME280;39116;59.332;18.034;2023-04-03T10:29:27;103015.47;;;3.46;83.56
10824;BME280;39116;59.332;18.034;2023-04-03T10:32:00;103019.78;;;3.23;81.00
10824;BME280;39116;59.332;18.034;2023-04-03T10:34:27;103008.50;;;3.44;85.92
10824;BME280;39116;59.332;18.034;2023-04-03T10:36:56;103011.66;;;3.52;81.11
10824;BME280;39116;59.332;18.034;2023-04-03T10:39:28;103001.56;;;3.67;80.10
10824;BME280;39116;59.332;18.034;2023-04-03T10:42:00;103007.44;;;2.95;80.41
10824;BME280;39116;59.332;18.034;2023-04-03T10:44:32;102999.34;;;2.91;83.98
10824;BME280;39116;59.332;18.034;2023-04-03T10:47:02;103001.22;;;3.15;81.54
10824;BME280;39116;59.332;18.034;2023-04-03T10:49:40;102995.44;;;3.41;80.15
10824;BME280;39116;59.332;18.034;2023-04-03T10:52:14;102983.56;;;3.55;79.78
10824;BME280;39116;59.332;18.034;2023-04-03T10:54:41;102990.28;;;3.41;80.24
10824;BME280;39116;59.332;18.034;2023-04-03T10:57:08;102981.66;;;3.53;73.12
10824;BME280;39116;59.332;18.034;2023-04-03T10:59:33;102981.28;;;3.13;76.94
10824;BME280;39116;59.332;18.034;2023-04-03T11:02:00;102972.78;;;3.02;78.82
10824;BME280;39116;59.332;18.034;2023-04-03T11:04:25;102978.84;;;3.38;77.92
10824;BME280;39116;59.332;18.034;2023-04-03T11:06:52;102969.78;;;3.67;76.93
10824;BME280;39116;59.332;18.034;2023-04-03T11:09:22;102969.72;;;4.02;72.97
10824;BME280;39116;59.332;18.034;2023-04-03T11:11:45;102957.81;;;3.55;79.95
10824;BME280;39116;59.332;18.034;2023-04-03T11:14:14;102946.31;;;3.87;76.74
10824;BME280;39116;59.332;18.034;2023-04-03T11:16:41;102949.94;;;4.14;79.03
10824;BME280;39116;59.332;18.034;2023-04-03T11:19:14;102943.75;;;3.87;74.75
10824;BME280;39116;59.332;18.034;2023-04-03T11:21:45;102942.56;;;4.07;73.69
10824;BME280;39116;59.332;18.034;2023-04-03T11:24:16;102946.94;;;4.08;60.42
10824;BME280;39116;59.332;18.034;2023-04-03T11:26:42;102946.34;;;4.12;56.58
10824;BME280;39116;59.332;18.034;2023-04-03T11:29:07;102933.00;;;3.81;66.78
10824;BME280;39116;59.332;18.034;2023-04-03T11:31:47;102930.94;;;3.52;74.32
10824;BME280;39116;59.332;18.034;2023-04-03T11:34:26;102923.75;;;3.48;74.58
10824;BME280;39116;59.332;18.034;2023-04-03T11:36:57;102927.31;;;4.10;71.57
10824;BME280;39116;59.332;18.034;2023-04-03T11:39:24;102925.69;;;3.99;67.42
10824;BME280;39116;59.332;18.034;2023-04-03T11:41:47;102922.53;;;4.03;65.58
10824;BME280;39116;59.332;18.034;2023-04-03T11:44:33;102920.47;;;4.36;54.77
10824;BME280;39116;59.332;18.034;2023-04-03T11:46:59;102919.00;;;4.39;44.43
10824;BME280;39116;59.332;18.034;2023-04-03T11:49:59;102924.63;;;4.34;40.56
10824;BME280;39116;59.332;18.034;2023-04-03T11:52:56;102906.84;;;4.50;40.75
10824;BME280;39116;59.332;18.034;2023-04-03T11:58:18;102902.22;;;4.58;41.50
10824;BME280;39116;59.332;18.034;2023-04-03T12:00:52;102902.00;;;4.68;39.27
10824;BME280;39116;59.332;18.034;2023-04-03T12:09:59;102892.13;;;4.74;39.41
10824;BME280;39116;59.332;18.034;2023-04-03T12:12:28;102885.69;;;4.94;39.97
10824;BME280;39116;59.332;18.034;2023-04-03T12:14:51;102891.63;;;4.67;38.40
10824;BME280;39116;59.332;18.034;2023-04-03T12:17:20;102886.31;;;5.17;38.00
10824;BME280;39116;59.332;18.034;2023-04-03T12:19:44;102881.13;;;5.30;38.02
10824;BME280;39116;59.332;18.034;2023-04-03T12:22:18;102871.09;;;5.77;37.31
10824;BME280;39116;59.332;18.034;2023-04-03T12:24:42;102880.78;;;5.66;34.93
10824;BME280;39116;59.332;18.034;2023-04-03T12:27:21;102878.03;;;5.78;34.48
10824;BME280;39116;59.332;18.034;2023-04-03T12:29:49;102881.25;;;5.73;34.92
10824;BME280;39116;59.332;18.034;2023-04-03T12:32:22;102884.03;;;5.63;34.43
10824;BME280;39116;59.332;18.034;2023-04-03T12:34:55;102871.47;;;5.96;33.21